Time;durP1;ratioP1;P1;durP2;ratioP2;P2;SDS_P1;SDS_P2;PMS_P1;PMS_P2;Temp;Humidity;BMP_temperature;BMP_pressure;BME280_temperature;BME280_humidity;BME280_pressure;Samples;Min_cycle;Max_cycle;Signal;HPM_P1;HPM_P2
2022/09/05 00:02:01;;;;;;;8.27;4.07;;;;;;;20.66;46.82;101825.59;4933993;28;123899;-79
2022/09/05 00:04:35;;;;;;;5.25;3.83;;;;;;;20.66;46.92;101819.34;4939286;28;113390;-79
2022/09/05 00:07:24;;;;;;;6.30;4.03;;;;;;;20.64;46.86;101821.28;4935065;28;114406;-79
2022/09/05 00:10:34;;;;;;;6.75;3.80;;;;;;;20.61;46.93;101811.63;4943126;28;124030;-80
2022/09/05 00:13:33;;;;;;;7.00;3.67;;;;;;;20.58;46.98;101817.19;4944998;28;122913;-79
2022/09/05 00:16:22;;;;;;;7.28;3.35;;;;;;;20.55;46.97;101812.88;4953587;28;114022;-79
2022/09/05 00:19:37;;;;;;;7.18;3.78;;;;;;;20.51;46.90;101818.59;4939134;28;114306;-79
2022/09/05 00:22:31;;;;;;;6.20;3.75;;;;;;;20.45;47.17;101813.66;4940282;28;124119;-79
2022/09/05 00:25:28;;;;;;;12.02;4.30;;;;;;;20.38;47.32;101811.41;4949977;28;124621;-79
2022/09/05 00:28:17;;;;;;;11.05;4.45;;;;;;;20.34;47.41;101815.28;4944878;28;114899;-80
2022/09/05 00:31:07;;;;;;;7.45;4.60;;;;;;;20.29;47.74;101808.50;4948132;28;113990;-78
2022/09/05 00:34:13;;;;;;;9.98;5.15;;;;;;;20.23;47.85;101817.88;4938218;28;122453;-78
2022/09/05 00:36:40;;;;;;;11.35;5.10;;;;;;;20.21;47.85;101809.03;4931014;28;123532;-78
2022/09/05 00:39:16;;;;;;;6.35;4.55;;;;;;;20.20;48.07;101812.69;4941812;28;114952;-78
2022/09/05 00:41:48;;;;;;;8.38;4.60;;;;;;;20.20;48.24;101807.31;4943930;28;113729;-78
2022/09/05 00:44:18;;;;;;;7.65;5.00;;;;;;;20.19;48.19;101800.19;4920696;28;124019;-77
2022/09/05 00:46:56;;;;;;;7.95;5.03;;;;;;;20.18;48.16;101793.13;4950816;28;123911;-79
2022/09/05 00:49:31;;;;;;;7.20;4.32;;;;;;;20.16;48.18;101795.06;4937142;28;115218;-79
2022/09/05 00:52:20;;;;;;;9.57;4.70;;;;;;;20.14;48.21;101802.38;4936616;28;112403;-78
2022/09/05 00:55:09;;;;;;;6.28;4.70;;;;;;;20.09;48.21;101809.91;4940984;28;122097;-78
2022/09/05 00:57:57;;;;;;;7.88;4.72;;;;;;;20.05;48.38;101803.03;4939144;28;124378;-78
2022/09/05 01:00:50;;;;;;;7.32;4.47;;;;;;;20.01;48.32;101797.84;4940112;28;113882;-78
2022/09/05 01:03:30;;;;;;;7.97;4.82;;;;;;;19.98;48.42;101798.03;4945588;28;113809;-79
2022/09/05 01:06:19;;;;;;;6.57;3.78;;;;;;;19.96;48.46;101800.00;4930167;28;122479;-78
2022/09/05 01:09:30;;;;;;;8.15;4.75;;;;;;;19.93;48.42;101800.22;4941246;28;122919;-79
2022/09/05 01:12:19;;;;;;;7.80;4.03;;;;;;;19.87;48.34;101806.00;4958365;28;115329;-78
2022/09/05 01:15:21;;;;;;;8.95;4.40;;;;;;;19.86;48.54;101809.66;4933890;28;114813;-78
2022/09/05 01:18:13;;;;;;;7.93;4.50;;;;;;;19.83;48.48;101804.50;4941678;28;124264;-78
2022/09/05 01:20:58;;;;;;;5.18;3.92;;;;;;;19.81;48.70;101811.81;4954142;28;122193;-78
2022/09/05 01:23:47;;;;;;;6.30;4.28;;;;;;;19.76;48.44;101800.50;4944768;28;114322;-80
2022/09/05 01:26:51;;;;;;;9.35;4.45;;;;;;;19.72;48.61;101798.97;4942615;28;114273;-79
2022/09/05 01:29:53;;;;;;;8.38;4.60;;;;;;;19.66;48.51;101792.19;4939016;28;124483;-79
2022/09/05 01:32:31;;;;;;;7.80;5.20;;;;;;;19.65;48.88;101802.06;4939647;28;123729;-78
2022/09/05 01:35:24;;;;;;;7.65;4.53;;;;;;;19.62;49.14;101796.91;4935593;28;96970;-78
2022/09/05 01:38:08;;;;;;;7.78;5.32;;;;;;;19.61;49.36;101800.56;4955855;28;114406;-79
2022/09/05 01:41:01;;;;;;;7.90;5.35;;;;;;;19.61;49.52;101799.72;4931993;28;122862;-79
2022/09/05 01:44:13;;;;;;;6.93;4.55;;;;;;;19.63;49.26;101801.31;4935541;28;124399;-78
2022/09/05 01:47:18;;;;;;;7.30;4.63;;;;;;;19.62;49.28;101801.41;4941018;28;113198;-79
2022/09/05 01:49:56;;;;;;;5.90;4.53;;;;;;;19.59;49.30;101797.13;4949589;28;113495;-79
2022/09/05 01:52:49;;;;;;;9.10;4.70;;;;;;;19.59;49.60;101802.50;4948754;28;123509;-80
2022/09/05 01:55:52;;;;;;;9.45;4.95;;;;;;;19.55;49.45;101806.38;4936249;28;123866;-78
2022/09/05 01:59:12;;;;;;;7.15;4.57;;;;;;;19.49;49.41;101801.38;4953434;28;114069;-80
2022/09/05 02:02:08;;;;;;;6.68;5.05;;;;;;;19.45;49.44;101799.88;4953261;28;113887;-79
2022/09/05 02:04:53;;;;;;;8.02;4.70;;;;;;;19.43;49.67;101801.81;4943752;28;123946;-77
2022/09/05 02:07:58;;;;;;;8.23;4.82;;;;;;;19.39;49.43;101802.97;4936556;28;123764;-79
2022/09/05 02:10:59;;;;;;;8.77;4.83;;;;;;;19.34;49.63;101802.41;4936679;28;115062;-79
2022/09/05 02:13:41;;;;;;;8.50;5.18;;;;;;;19.32;50.00;101807.03;4936769;28;115384;-79
2022/09/05 02:16:22;;;;;;;8.05;5.30;;;;;;;19.29;49.79;101805.44;4937285;28;124865;-79
2022/09/05 02:19:13;;;;;;;11.10;5.25;;;;;;;19.26;50.34;101806.47;4936771;28;124029;-78
2022/09/05 02:21:54;;;;;;;8.20;5.05;;;;;;;19.21;49.96;101803.25;4940668;28;113710;-79
2022/09/05 02:25:03;;;;;;;7.93;5.13;;;;;;;19.22;50.16;101804.97;4938334;28;116718;-80
2022/09/05 02:27:57;;;;;;;9.00;5.67;;;;;;;19.19;50.11;101802.50;4942123;28;123939;-79
2022/09/05 02:30:40;;;;;;;11.38;5.18;;;;;;;19.20;50.22;101806.88;4943769;28;122584;-80
2022/09/05 02:33:39;;;;;;;8.90;5.20;;;;;;;19.16;49.75;101805.38;4943700;28;114246;-78
2022/09/05 02:36:22;;;;;;;7.70;4.80;;;;;;;19.11;50.13;101810.19;4947362;28;113617;-80
2022/09/05 02:39:13;;;;;;;10.35;5.15;;;;;;;19.07;50.26;101811.34;4943748;28;124152;-80
2022/09/05 02:42:15;;;;;;;6.10;4.50;;;;;;;19.03;50.23;101808.00;4944572;28;123779;-80
2022/09/05 02:45:05;;;;;;;10.35;5.55;;;;;;;19.02;50.52;101808.09;4941173;28;114095;-80
2022/09/05 02:48:02;;;;;;;10.30;5.25;;;;;;;19.02;50.46;101808.09;4938239;28;113182;-79
2022/09/05 02:51:00;;;;;;;9.73;5.70;;;;;;;19.01;50.65;101806.38;4935025;28;123060;-79
2022/09/05 02:54:10;;;;;;;8.23;5.93;;;;;;;19.02;50.68;101808.97;4938994;28;122855;-79
2022/09/05 02:57:14;;;;;;;7.25;5.60;;;;;;;19.04;50.24;101811.53;4936210;28;114117;-80
2022/09/05 03:00:14;;;;;;;8.90;5.88;;;;;;;19.05;50.56;101807.91;4936598;28;114347;-79
2022/09/05 03:02:44;;;;;;;9.00;5.20;;;;;;;19.03;50.89;101799.09;4935102;28;125435;-78
2022/09/05 03:05:31;;;;;;;6.47;5.13;;;;;;;19.03;50.68;101804.47;4946586;28;124100;-78
2022/09/05 03:08:32;;;;;;;6.63;5.28;;;;;;;19.01;50.45;101801.03;4952834;28;115247;-77
2022/09/05 03:11:37;;;;;;;8.18;4.88;;;;;;;18.97;50.28;101804.88;4957907;28;115711;-76
2022/09/05 03:14:38;;;;;;;8.35;5.70;;;;;;;18.93;50.32;101803.31;4955453;28;123380;-78
2022/09/05 03:17:08;;;;;;;8.07;5.38;;;;;;;18.90;50.52;101808.91;4964661;28;124140;-79
2022/09/05 03:19:50;;;;;;;9.30;5.53;;;;;;;18.88;50.42;101805.47;4945686;28;113662;-79
2022/09/05 03:22:24;;;;;;;9.45;5.80;;;;;;;18.87;50.46;101804.56;4939695;28;113373;-79
2022/09/05 03:25:00;;;;;;;9.57;5.65;;;;;;;18.85;50.71;101811.88;4943356;28;124721;-78
2022/09/05 03:27:35;;;;;;;9.13;5.43;;;;;;;18.82;50.54;101807.56;4942866;28;123633;-79
2022/09/05 03:30:19;;;;;;;7.22;5.85;;;;;;;18.81;50.48;101811.22;4941299;28;113716;-78
2022/09/05 03:33:16;;;;;;;8.75;5.05;;;;;;;18.79;50.55;101806.88;4942604;28;113260;-79
2022/09/05 03:36:01;;;;;;;11.45;5.45;;;;;;;18.76;50.49;101802.56;4938393;28;124463;-79
2022/09/05 03:38:50;;;;;;;9.35;5.80;;;;;;;18.73;50.78;101810.81;4946385;28;123690;-79
2022/09/05 03:41:35;;;;;;;10.05;5.90;;;;;;;18.72;50.92;101817.13;4921909;28;113968;-80
2022/09/05 03:44:34;;;;;;;9.70;5.85;;;;;;;18.70;50.62;101819.06;4941338;28;114039;-80
2022/09/05 03:47:27;;;;;;;11.97;6.37;;;;;;;18.68;50.70;101820.97;4951329;28;123780;-79
2022/09/05 03:50:12;;;;;;;11.27;5.95;;;;;;;18.64;50.96;101820.31;4943522;28;123792;-81
2022/09/05 03:53:27;;;;;;;9.75;5.85;;;;;;;18.61;50.64;101822.31;4945762;28;114604;-79
2022/09/05 03:56:45;;;;;;;8.63;5.68;;;;;;;18.57;50.87;101823.47;4930960;28;112965;-79
2022/09/05 03:59:50;;;;;;;9.43;5.85;;;;;;;18.53;50.81;101827.31;4942651;28;124088;-79
2022/09/05 04:02:25;;;;;;;9.52;5.47;;;;;;;18.51;51.17;101823.88;4942877;28;124725;-79
2022/09/05 04:05:20;;;;;;;12.38;6.25;;;;;;;18.48;51.27;101820.44;4944726;28;114984;-80
2022/09/05 04:08:13;;;;;;;13.48;7.20;;;;;;;18.46;51.38;101816.97;4931179;28;113856;-78
2022/09/05 04:11:07;;;;;;;9.23;5.97;;;;;;;18.45;51.41;101804.50;4935696;28;124682;-78
2022/09/05 04:13:47;;;;;;;15.60;6.97;;;;;;;18.41;51.65;101813.72;4945254;28;123106;-81
2022/09/05 04:16:19;;;;;;;10.60;6.78;;;;;;;18.40;51.76;101817.38;4919821;28;113408;-80
2022/09/05 04:18:52;;;;;;;12.80;6.75;;;;;;;18.37;51.74;101812.19;4941539;28;113255;-81
2022/09/05 04:21:33;;;;;;;12.82;6.57;;;;;;;18.33;51.78;101815.13;4939968;28;123519;-81
2022/09/05 04:24:16;;;;;;;12.70;7.18;;;;;;;18.33;51.85;101818.72;4946447;28;123765;-78
2022/09/05 04:27:18;;;;;;;9.70;6.35;;;;;;;18.30;51.92;101821.56;4938424;28;117392;-81
2022/09/05 04:29:58;;;;;;;10.48;6.40;;;;;;;18.26;51.79;101817.34;4919972;28;113152;-80
2022/09/05 04:32:50;;;;;;;11.10;6.68;;;;;;;18.23;51.91;101825.56;4939469;28;123580;-80
2022/09/05 04:35:39;;;;;;;14.18;6.88;;;;;;;18.19;51.97;101832.09;4942862;28;122794;-79
2022/09/05 04:38:12;;;;;;;10.75;6.35;;;;;;;18.15;51.99;101823.38;4940240;28;113180;-79
2022/09/05 04:40:59;;;;;;;11.15;6.72;;;;;;;18.11;52.03;101831.72;4957215;28;113162;-82
2022/09/05 04:43:46;;;;;;;12.07;6.22;;;;;;;18.07;52.14;101834.56;4943609;28;122285;-79
2022/09/05 04:46:27;;;;;;;9.93;6.70;;;;;;;18.04;52.21;101837.41;4946957;28;124204;-80
2022/09/05 04:49:12;;;;;;;9.82;6.13;;;;;;;18.02;52.16;101833.97;4942269;28;114859;-78
2022/09/05 04:51:58;;;;;;;11.90;6.20;;;;;;;18.03;52.28;101845.59;4941634;28;113024;-81
2022/09/05 04:54:38;;;;;;;10.77;7.40;;;;;;;18.03;52.31;101833.03;4939490;28;123904;-79
2022/09/05 04:57:11;;;;;;;8.10;6.20;;;;;;;18.04;52.32;101845.47;4946788;28;124362;-79
2022/09/05 04:59:52;;;;;;;10.20;6.32;;;;;;;18.04;52.32;101848.16;4956060;28;115070;-81
2022/09/05 05:02:45;;;;;;;9.65;6.43;;;;;;;18.02;52.07;101844.69;4940506;28;114553;-79
2022/09/05 05:05:57;;;;;;;11.25;6.75;;;;;;;18.00;52.18;101846.63;4936973;28;123580;-79
2022/09/05 05:08:53;;;;;;;10.82;6.18;;;;;;;18.00;52.30;101845.75;4941922;28;123733;-80
2022/09/05 05:11:38;;;;;;;11.45;6.97;;;;;;;17.96;52.36;101845.06;4941410;28;114593;-79
2022/09/05 05:14:59;;;;;;;11.52;6.78;;;;;;;17.93;52.22;101839.88;4944196;28;115041;-79
2022/09/05 05:18:04;;;;;;;12.32;7.38;;;;;;;17.91;52.71;101844.47;4940342;28;123292;-80
2022/09/05 05:20:59;;;;;;;10.20;7.38;;;;;;;17.92;52.90;101848.06;4959766;28;122959;-80
2022/09/05 05:23:37;;;;;;;10.45;7.30;;;;;;;17.92;52.90;101843.53;4952666;28;112900;-81
2022/09/05 05:26:30;;;;;;;11.05;7.55;;;;;;;17.96;53.40;101845.06;4932148;28;113531;-79
2022/09/05 05:28:58;;;;;;;12.40;7.82;;;;;;;17.98;53.49;101853.88;4939211;28;124834;-80
2022/09/05 05:31:30;;;;;;;11.00;8.07;;;;;;;17.99;53.64;101844.91;4946137;28;124545;-80
2022/09/05 05:34:03;;;;;;;13.55;7.28;;;;;;;18.01;53.84;101851.03;4934076;28;112783;-79
2022/09/05 05:37:07;;;;;;;11.43;7.68;;;;;;;18.06;53.82;101857.00;4934218;28;114679;-79
2022/09/05 05:39:43;;;;;;;16.23;7.70;;;;;;;18.12;54.06;101854.88;4931566;28;124731;-78
2022/09/05 05:42:21;;;;;;;14.43;8.65;;;;;;;18.15;54.29;101855.53;4916055;28;123525;-78
2022/09/05 05:44:53;;;;;;;10.90;7.78;;;;;;;18.20;54.33;101847.25;4932142;28;112828;-80
2022/09/05 05:47:32;;;;;;;12.23;8.20;;;;;;;18.24;54.59;101854.13;4935711;28;114078;-82
2022/09/05 05:50:06;;;;;;;11.45;7.68;;;;;;;18.31;54.63;101850.13;4935190;28;123522;-82
2022/09/05 05:53:15;;;;;;;14.45;8.40;;;;;;;18.37;54.70;101854.25;4935453;28;123802;-80
2022/09/05 05:56:21;;;;;;;10.68;8.15;;;;;;;18.41;54.66;101840.53;4934359;28;114271;-81
2022/09/05 05:59:04;;;;;;;12.15;8.10;;;;;;;18.46;55.03;101846.50;4946007;28;115838;-80
2022/09/05 06:02:25;;;;;;;17.77;8.48;;;;;;;18.53;54.76;101851.47;4916118;28;123505;-80
2022/09/05 06:05:06;;;;;;;12.18;8.43;;;;;;;18.59;55.25;101853.75;4891969;28;121679;-81
2022/09/05 06:07:51;;;;;;;12.20;8.00;;;;;;;18.69;55.39;101849.53;4937961;28;114817;-82
2022/09/05 06:10:54;;;;;;;14.80;9.13;;;;;;;18.78;55.37;101854.34;4937637;28;114230;-81
2022/09/05 06:14:09;;;;;;;15.65;9.68;;;;;;;18.90;55.43;101858.09;4930917;28;123181;-81
2022/09/05 06:17:14;;;;;;;16.77;8.93;;;;;;;19.05;55.67;101853.56;4940721;28;123770;-81
2022/09/05 06:20:08;;;;;;;19.52;10.32;;;;;;;19.19;55.67;101848.16;4944642;28;113861;-81
2022/09/05 06:23:24;;;;;;;16.33;10.38;;;;;;;19.36;55.85;101859.59;4935992;28;113199;-81
2022/09/05 06:26:41;;;;;;;14.98;10.85;;;;;;;19.52;55.78;101860.31;4916691;28;123953;-82
2022/09/05 06:29:55;;;;;;;17.77;11.40;;;;;;;19.69;55.78;101861.00;4935187;28;124662;-83
2022/09/05 06:32:28;;;;;;;18.50;11.27;;;;;;;19.87;56.11;101864.28;4948377;28;113907;-83
2022/09/05 06:35:14;;;;;;;16.38;11.75;;;;;;;20.04;56.55;101861.31;4922053;28;113587;-82
2022/09/05 06:37:53;;;;;;;16.40;11.55;;;;;;;20.23;56.31;101866.31;4941144;28;124323;-82
2022/09/05 06:40:45;;;;;;;19.13;12.48;;;;;;;20.46;56.58;101872.75;4947216;28;123161;-82
2022/09/05 06:43:30;;;;;;;13.43;11.52;;;;;;;20.71;56.11;101877.28;4913820;28;112590;-83
2022/09/05 06:46:06;;;;;;;15.68;11.48;;;;;;;20.96;56.21;101870.13;4946424;28;113686;-82
2022/09/05 06:48:53;;;;;;;15.82;10.52;;;;;;;21.20;55.97;101872.84;4947086;28;124247;-82
2022/09/05 06:51:48;;;;;;;14.93;10.43;;;;;;;21.49;55.26;101878.81;4946951;28;124224;-82
2022/09/05 06:54:30;;;;;;;15.70;11.30;;;;;;;21.76;55.36;101877.72;4950764;28;115452;-82
2022/09/05 06:57:35;;;;;;;15.27;10.18;;;;;;;22.04;55.12;101883.66;4949110;28;114510;-81
2022/09/05 07:00:19;;;;;;;15.50;10.13;;;;;;;22.33;54.67;101881.44;4930544;28;124019;-82
2022/09/05 07:03:26;;;;;;;14.48;10.02;;;;;;;22.61;54.16;101877.41;4923208;28;122062;-82
2022/09/05 07:06:00;;;;;;;15.95;9.75;;;;;;;22.89;53.89;101875.22;4955289;28;113415;-82
2022/09/05 07:08:47;;;;;;;14.10;10.15;;;;;;;23.14;53.59;101874.09;4946883;28;113171;-81
2022/09/05 07:11:17;;;;;;;13.18;9.63;;;;;;;23.36;53.48;101873.19;4939656;28;123663;-82
2022/09/05 07:14:09;;;;;;;12.02;9.82;;;;;;;23.62;52.89;101878.22;4949708;28;122730;-82
2022/09/05 07:16:59;;;;;;;11.55;8.98;;;;;;;23.85;52.66;101874.47;4949866;28;115126;-81
2022/09/05 07:19:54;;;;;;;10.75;8.90;;;;;;;24.12;52.17;101880.38;4919470;28;113288;-82
2022/09/05 07:22:47;;;;;;;11.23;8.70;;;;;;;24.36;51.52;101871.97;4962294;28;123433;-81
2022/09/05 07:25:28;;;;;;;12.73;8.55;;;;;;;24.57;51.27;101875.53;4948887;28;124139;-81
2022/09/05 07:28:11;;;;;;;14.48;8.80;;;;;;;24.78;50.53;101871.91;4949394;28;114216;-81
2022/09/05 07:31:05;;;;;;;14.02;8.20;;;;;;;24.97;49.97;101865.69;4944355;28;113559;-81
2022/09/05 07:33:36;;;;;;;10.48;7.63;;;;;;;25.14;49.42;101861.44;4948662;28;122988;-81
2022/09/05 07:36:16;;;;;;;10.38;8.18;;;;;;;25.31;49.67;101862.66;4941774;28;122799;-81
2022/09/05 07:38:49;;;;;;;11.30;8.48;;;;;;;25.47;48.96;101862.06;4960285;28;116282;-80
2022/09/05 07:41:38;;;;;;;12.35;8.88;;;;;;;25.62;48.44;101866.94;4969624;28;114899;-79
2022/09/05 07:44:13;;;;;;;10.77;8.70;;;;;;;25.77;48.37;101864.66;4937443;28;124080;-80
2022/09/05 07:46:45;;;;;;;12.55;9.48;;;;;;;25.94;48.16;101864.97;4967177;28;122686;-81
2022/09/05 07:49:17;;;;;;;11.73;8.52;;;;;;;26.05;47.37;101870.25;4954600;28;114789;-80
2022/09/05 07:51:54;;;;;;;9.70;8.65;;;;;;;26.15;47.23;101879.22;4940267;28;114425;-80
2022/09/05 07:54:45;;;;;;;12.00;9.88;;;;;;;26.27;47.12;101870.91;4946337;28;124674;-81
2022/09/05 07:57:40;;;;;;;15.20;9.52;;;;;;;26.39;46.59;101869.69;4954154;28;123339;-80
2022/09/05 08:00:24;;;;;;;12.23;9.05;;;;;;;26.55;46.57;101880.81;4941527;28;112949;-81
2022/09/05 08:03:08;;;;;;;16.75;9.98;;;;;;;26.69;46.38;101871.38;4954189;28;114134;-80
2022/09/05 08:05:43;;;;;;;13.65;9.98;;;;;;;26.80;46.11;101878.44;4954634;28;122226;-81
2022/09/05 08:08:16;;;;;;;;;;;;;;;26.87;46.67;101874.13;4956951;28;124104;-80
2022/09/05 08:10:48;;;;;;;12.63;9.48;;;;;;;27.04;46.22;101869.75;4940301;28;113555;-81
2022/09/05 08:14:13;;;;;;;14.18;8.73;;;;;;;27.21;45.52;101869.94;4940737;28;114025;-80
2022/09/05 08:17:09;;;;;;;12.80;8.70;;;;;;;27.36;45.20;101868.41;4929293;28;123336;-81
2022/09/05 08:20:08;;;;;;;8.93;7.60;;;;;;;27.49;44.81;101873.47;4938717;28;122818;-81
2022/09/05 08:22:51;;;;;;;11.45;7.97;;;;;;;27.60;44.07;101865.09;4940631;28;114487;-81
2022/09/05 08:25:46;;;;;;;9.43;7.43;;;;;;;27.74;44.05;101878.13;4954224;28;111893;-80
2022/09/05 08:28:37;;;;;;;9.48;6.35;;;;;;;27.90;43.48;101879.31;4954033;28;123966;-80
2022/09/05 08:31:14;;;;;;;7.90;6.15;;;;;;;28.05;42.50;101885.91;4953511;28;123393;-80
2022/09/05 08:33:43;;;;;;;8.82;6.32;;;;;;;28.19;42.63;101887.19;4950599;28;113521;-81
2022/09/05 08:36:33;;;;;;;6.97;5.03;;;;;;;28.37;42.20;101884.44;4954832;28;113781;-81
2022/09/05 08:39:03;;;;;;;6.18;5.00;;;;;;;28.52;41.62;101885.56;4942635;28;124038;-81
2022/09/05 08:41:43;;;;;;;10.52;5.13;;;;;;;28.64;40.70;101883.41;4953632;28;124003;-81
2022/09/05 08:44:37;;;;;;;5.88;4.47;;;;;;;28.75;41.19;101885.00;4934240;28;114598;-81
2022/09/05 08:47:39;;;;;;;6.32;4.38;;;;;;;28.91;40.52;101882.34;4954488;28;115367;-81
2022/09/05 08:50:38;;;;;;;8.55;5.28;;;;;;;29.02;40.43;101883.03;4964586;28;124114;-80
2022/09/05 08:53:25;;;;;;;7.43;5.40;;;;;;;29.11;39.85;101876.59;4925730;28;122881;-80
2022/09/05 08:56:41;;;;;;;5.93;4.30;;;;;;;29.26;39.75;101874.97;4952017;28;114056;-80
2022/09/05 08:59:14;;;;;;;6.60;4.38;;;;;;;29.36;39.51;101879.41;4905631;28;113389;-80
2022/09/05 09:02:16;;;;;;;6.65;4.28;;;;;;;29.46;39.83;101869.19;4936661;28;124371;-80
2022/09/05 09:05:22;;;;;;;11.15;4.22;;;;;;;29.59;39.29;101858.66;4949942;28;123909;-80
2022/09/05 09:07:49;;;;;;;6.25;4.82;;;;;;;29.71;38.87;101861.88;4942049;28;114692;-80
2022/09/05 09:10:42;;;;;;;6.70;4.35;;;;;;;29.85;39.29;101863.09;4962040;28;113690;-81
2022/09/05 09:13:14;;;;;;;6.93;3.42;;;;;;;29.99;38.23;101864.28;4938243;28;123154;-81
2022/09/05 09:16:20;;;;;;;5.32;2.80;;;;;;;30.15;38.18;101863.41;4949877;28;122342;-80
2022/09/05 09:18:47;;;;;;;4.45;2.40;;;;;;;30.28;37.53;101852.78;4946560;28;113590;-81
2022/09/05 09:21:59;;;;;;;5.60;3.05;;;;;;;30.36;37.20;101850.06;4935033;28;113995;-84
2022/09/05 09:24:49;;;;;;;6.10;2.42;;;;;;;30.41;36.81;101847.66;4935937;28;124732;-80
2022/09/05 09:31:36;;;;;;;4.40;2.30;;;;;;;30.71;36.47;101853.34;4946297;28;114715;-80
2022/09/05 09:34:16;;;;;;;3.13;2.08;;;;;;;30.83;35.33;101840.97;4923963;28;112153;-80
2022/09/05 09:37:01;;;;;;;4.80;2.30;;;;;;;30.90;35.30;101840.28;4940218;28;124085;-80
2022/09/05 09:40:02;;;;;;;3.15;2.00;;;;;;;31.01;35.37;101843.50;4956475;28;124573;-80
2022/09/05 09:42:44;;;;;;;3.83;2.35;;;;;;;31.11;35.00;101843.25;4939744;28;113367;-80
2022/09/05 09:45:30;;;;;;;3.22;1.98;;;;;;;31.20;34.43;101842.16;4924397;28;114424;-81
2022/09/05 09:48:10;;;;;;;2.78;1.90;;;;;;;31.29;34.75;101839.38;4919080;28;123698;-81
2022/09/05 09:51:07;;;;;;;2.90;1.83;;;;;;;31.38;34.57;101833.69;4935960;28;122853;-81
2022/09/05 09:54:03;;;;;;;2.83;1.83;;;;;;;31.53;34.81;101831.03;4939350;28;114155;-80
2022/09/05 09:57:06;;;;;;;3.55;1.95;;;;;;;31.68;34.09;101832.94;4946191;28;114150;-81
2022/09/05 09:59:50;;;;;;;3.03;2.00;;;;;;;31.76;32.96;101827.38;4953853;28;124230;-80
2022/09/05 10:02:24;;;;;;;;;;;;;;;31.77;34.55;101831.84;4941585;28;122533;-81
2022/09/05 10:05:49;;;;;;;2.25;1.58;;;;;;;31.87;32.91;101831.56;4935910;28;114258;-80
2022/09/05 10:08:58;;;;;;;4.05;1.77;;;;;;;31.88;32.50;101823.16;4934014;28;113179;-81
2022/09/05 10:12:44;;;;;;;2.97;1.50;;;;;;;31.94;32.70;101816.94;4942328;28;124075;-80
2022/09/05 10:15:25;;;;;;;2.92;1.50;;;;;;;32.05;31.78;101814.81;4887721;28;124580;-79
2022/09/05 10:18:34;;;;;;;4.28;1.65;;;;;;;32.13;31.19;101818.28;4934091;28;114464;-82
2022/09/05 10:21:13;;;;;;;3.28;1.45;;;;;;;32.21;31.18;101811.88;4945130;28;114253;-81
2022/09/05 10:23:47;;;;;;;3.75;1.35;;;;;;;32.34;31.25;101817.56;4945615;28;124553;-80
2022/09/05 10:26:15;;;;;;;3.92;1.60;;;;;;;32.50;31.02;101815.66;4950330;28;122234;-81
2022/09/05 10:28:54;;;;;;;1.98;1.20;;;;;;;32.65;29.97;101813.78;4953490;28;114595;-81
2022/09/05 10:31:55;;;;;;;2.15;1.10;;;;;;;32.83;29.67;101801.53;4944338;28;113904;-81
2022/09/05 10:34:55;;;;;;;2.10;1.30;;;;;;;32.91;29.30;101798.69;4934754;28;124708;-81
2022/09/05 10:37:47;;;;;;;3.55;1.38;;;;;;;33.01;29.21;101790.97;4935988;28;123844;-81
2022/09/05 10:40:21;;;;;;;2.17;1.20;;;;;;;33.14;28.90;101796.63;4942480;28;115700;-81
2022/09/05 10:42:57;;;;;;;4.00;1.30;;;;;;;33.25;27.82;101797.16;4940784;28;114840;-81
2022/09/05 10:45:44;;;;;;;2.50;1.20;;;;;;;33.34;28.08;101790.47;4962135;28;124130;-80
2022/09/05 10:48:26;;;;;;;2.17;1.30;;;;;;;33.40;27.98;101784.22;4947093;28;123443;-80
2022/09/05 10:51:16;;;;;;;2.42;1.20;;;;;;;33.44;28.22;101788.25;4944727;28;114150;-79
2022/09/05 10:54:12;;;;;;;1.95;1.23;;;;;;;33.51;27.42;101789.16;4940687;28;113127;-81
2022/09/05 10:56:49;;;;;;;1.58;1.10;;;;;;;33.56;26.68;101778.41;4952701;28;123269;-81
2022/09/05 10:59:28;;;;;;;2.17;1.20;;;;;;;33.58;26.57;101771.88;4950305;28;123289;-80
2022/09/05 11:02:22;;;;;;;2.03;1.20;;;;;;;33.58;26.56;101769.97;4938348;28;113616;-80
2022/09/05 11:05:20;;;;;;;1.92;1.27;;;;;;;33.62;26.98;101771.25;4977212;28;112905;-80
2022/09/05 11:08:24;;;;;;;2.65;1.08;;;;;;;33.66;26.63;101771.75;4958854;28;123871;-80
2022/09/05 11:11:16;;;;;;;1.60;1.30;;;;;;;33.62;26.93;101764.94;4953708;28;122168;-80
2022/09/05 11:14:06;;;;;;;3.08;1.20;;;;;;;33.63;26.39;101761.16;4945286;28;115362;-80
2022/09/05 11:16:50;;;;;;;2.85;1.10;;;;;;;33.70;26.15;101767.53;4940159;28;113350;-81
2022/09/05 11:19:27;;;;;;;3.53;1.30;;;;;;;33.72;26.35;101760.81;4924204;28;122493;-80
2022/09/05 11:22:06;;;;;;;3.60;1.75;;;;;;;33.82;26.72;101765.94;4943528;28;122678;-80
2022/09/05 11:24:56;;;;;;;4.72;1.42;;;;;;;33.96;26.39;101766.03;4942547;28;113382;-80
2022/09/05 11:27:39;;;;;;;2.25;1.20;;;;;;;34.05;26.17;101759.31;4947214;28;113902;-80
2022/09/05 11:30:14;;;;;;;1.92;1.10;;;;;;;34.14;25.71;101763.59;4964803;28;124291;-81
2022/09/05 11:33:31;;;;;;;2.47;1.30;;;;;;;34.11;25.72;101762.13;4950293;28;123877;-81
2022/09/05 11:36:28;;;;;;;2.63;1.20;;;;;;;34.12;26.07;101765.72;4942487;28;114831;-80
2022/09/05 11:39:42;;;;;;;2.80;1.30;;;;;;;34.19;25.93;101761.13;4920266;28;114319;-80
2022/09/05 11:42:47;;;;;;;2.40;1.50;;;;;;;34.25;25.56;101754.81;4938315;28;124463;-80
2022/09/05 11:45:21;;;;;;;3.08;1.30;;;;;;;34.24;24.73;101750.34;4941414;28;124163;-80
2022/09/05 11:48:08;;;;;;;2.50;1.48;;;;;;;34.18;25.23;101740.19;4933581;28;113322;-80
2022/09/05 11:50:48;;;;;;;2.70;1.40;;;;;;;34.21;25.32;101741.66;4949117;28;114602;-80
2022/09/05 11:53:39;;;;;;;2.53;1.55;;;;;;;34.23;25.21;101751.41;4948957;28;123830;-80
2022/09/05 11:56:06;;;;;;;1.98;1.13;;;;;;;34.27;24.96;101741.72;4953028;28;123292;-80
2022/09/05 11:58:52;;;;;;;2.55;1.38;;;;;;;34.31;25.08;101743.00;4943294;28;115018;-80
2022/09/05 12:02:01;;;;;;;1.48;1.20;;;;;;;34.36;24.92;101738.78;4944727;28;114382;-80
2022/09/05 12:05:05;;;;;;;2.90;1.20;;;;;;;34.35;24.88;101737.09;4946721;28;124138;-79
2022/09/05 12:08:28;;;;;;;2.88;1.50;;;;;;;34.37;25.02;101741.31;4938096;28;123740;-79
2022/09/05 12:10:58;;;;;;;4.10;1.40;;;;;;;34.44;24.98;101735.84;4943119;28;114167;-80
2022/09/05 12:13:46;;;;;;;1.92;1.30;;;;;;;34.49;24.31;101731.44;4937549;28;113945;-80
2022/09/05 12:16:24;;;;;;;1.80;1.20;;;;;;;34.50;24.38;101735.03;4940236;28;124421;-80
2022/09/05 12:19:15;;;;;;;4.07;1.10;;;;;;;34.53;24.58;101729.13;4941492;28;124634;-80
2022/09/05 12:22:16;;;;;;;2.70;1.27;;;;;;;34.61;24.34;101726.16;4933862;28;112486;-79
2022/09/05 12:25:04;;;;;;;4.43;1.40;;;;;;;34.65;24.40;101732.94;4941891;28;114492;-79
2022/09/05 12:27:55;;;;;;;2.33;1.30;;;;;;;34.71;24.40;101732.13;4951725;28;123247;-80
2022/09/05 12:30:43;;;;;;;3.40;1.30;;;;;;;34.78;23.85;101731.31;4953489;28;122734;-80
2022/09/05 12:33:32;;;;;;;3.35;1.30;;;;;;;34.75;23.41;101731.72;4953953;28;114698;-80
2022/09/05 12:36:34;;;;;;;1.95;1.35;;;;;;;34.75;23.74;101731.72;4947369;28;114614;-79
2022/09/05 12:39:30;;;;;;;2.92;1.38;;;;;;;34.80;24.16;101730.06;4947171;28;124156;-80
2022/09/05 12:42:32;;;;;;;2.13;1.42;;;;;;;34.86;23.85;101722.88;4944516;28;123054;-80
2022/09/05 12:45:48;;;;;;;2.40;1.48;;;;;;;34.90;23.66;101718.63;4941738;28;113970;-80
2022/09/05 12:48:30;;;;;;;3.38;1.52;;;;;;;34.92;23.94;101724.78;4901135;28;113575;-80
2022/09/05 12:51:16;;;;;;;1.98;1.27;;;;;;;34.95;23.78;101716.09;4942679;28;124385;-80
2022/09/05 12:54:09;;;;;;;2.38;1.30;;;;;;;34.99;23.08;101717.38;4945484;28;124295;-80
2022/09/05 12:57:06;;;;;;;2.17;1.67;;;;;;;34.98;22.96;101715.69;4944355;28;114520;-80
2022/09/05 13:00:02;;;;;;;2.22;1.40;;;;;;;34.99;22.81;101722.88;4939771;28;113647;-81
2022/09/05 13:02:56;;;;;;;1.45;1.10;;;;;;;35.08;22.98;101710.59;4948144;28;123041;-79